createdAt,value
2023-05-14T00:01:55.000Z,100.00
2023-05-14T00:04:21.614Z,100.00
2023-05-14T00:06:49.578Z,100.00
2023-05-14T00:09:16.076Z,100.00
2023-05-14T00:11:42.606Z,100.00
2023-05-14T00:14:09.101Z,100.00
2023-05-14T00:16:35.750Z,100.00
2023-05-14T00:19:02.394Z,100.00
2023-05-14T00:21:29.003Z,100.00
2023-05-14T00:23:56.819Z,100.00
2023-05-14T00:26:23.325Z,100.00
2023-05-14T00:28:49.905Z,100.00
2023-05-14T00:31:16.445Z,100.00
2023-05-14T00:33:42.955Z,100.00
2023-05-14T00:36:09.598Z,100.00
2023-05-14T00:38:36.070Z,100.00
2023-05-14T00:41:04.201Z,100.00
2023-05-14T00:43:30.735Z,100.00
2023-05-14T00:45:57.410Z,100.00
2023-05-14T00:48:24.848Z,100.00
2023-05-14T00:50:51.679Z,100.00
2023-05-14T00:53:19.278Z,100.00
2023-05-14T00:55:47.039Z,100.00
2023-05-14T00:58:14.959Z,100.00
2023-05-14T01:00:42.286Z,100.00
2023-05-14T01:03:09.550Z,100.00
2023-05-14T01:05:43.766Z,100.00
2023-05-14T01:08:25.225Z,100.00
2023-05-14T01:10:57.479Z,100.00
2023-05-14T01:13:29.052Z,100.00
2023-05-14T01:15:56.597Z,100.00
2023-05-14T01:18:24.996Z,100.00
2023-05-14T01:20:51.582Z,100.00
2023-05-14T01:23:19.392Z,100.00
2023-05-14T01:25:46.124Z,100.00
2023-05-14T01:28:17.167Z,100.00
2023-05-14T01:30:49.162Z,100.00
2023-05-14T01:33:17.996Z,100.00
2023-05-14T01:35:45.224Z,100.00
2023-05-14T01:38:14.815Z,100.00
2023-05-14T01:40:44.019Z,100.00
2023-05-14T01:43:10.837Z,100.00
2023-05-14T01:45:37.738Z,100.00
2023-05-14T01:48:04.852Z,100.00
2023-05-14T01:50:31.413Z,100.00
2023-05-14T01:52:57.939Z,100.00
2023-05-14T01:55:24.925Z,100.00
2023-05-14T01:57:53.272Z,100.00
2023-05-14T02:00:20.325Z,100.00
2023-05-14T02:02:47.015Z,100.00
2023-05-14T02:05:13.915Z,100.00
2023-05-14T02:07:40.468Z,100.00
2023-05-14T02:10:08.309Z,100.00
2023-05-14T02:12:34.904Z,100.00
2023-05-14T02:15:02.836Z,100.00
2023-05-14T02:17:29.376Z,100.00
2023-05-14T02:19:55.908Z,100.00
2023-05-14T02:22:22.376Z,100.00
2023-05-14T02:24:48.912Z,100.00
2023-05-14T02:27:15.477Z,100.00
2023-05-14T02:29:41.982Z,100.00
2023-05-14T02:32:09.851Z,100.00
2023-05-14T02:34:36.409Z,100.00
2023-05-14T02:37:02.964Z,100.00
2023-05-14T02:39:29.484Z,100.00
2023-05-14T02:41:55.960Z,100.00
2023-05-14T02:44:22.527Z,100.00
2023-05-14T02:46:49.092Z,100.00
2023-05-14T02:49:17.005Z,100.00
2023-05-14T02:51:43.542Z,100.00
2023-05-14T02:54:10.018Z,100.00
2023-05-14T02:56:36.555Z,100.00
2023-05-14T02:59:03.462Z,100.00
2023-05-14T03:01:30.652Z,100.00
2023-05-14T03:03:57.587Z,100.00
2023-05-14T03:06:25.426Z,100.00
2023-05-14T03:08:51.939Z,100.00
2023-05-14T03:11:18.523Z,100.00
2023-05-14T03:13:44.978Z,100.00
2023-05-14T03:16:11.610Z,100.00
2023-05-14T03:18:38.174Z,100.00
2023-05-14T03:21:04.763Z,100.00
2023-05-14T03:23:32.672Z,100.00
2023-05-14T03:25:59.160Z,100.00
2023-05-14T03:28:25.842Z,100.00
2023-05-14T03:30:52.575Z,100.00
2023-05-14T03:33:19.213Z,100.00
2023-05-14T03:35:45.757Z,100.00
2023-05-14T03:38:12.254Z,100.00
2023-05-14T03:40:40.167Z,100.00
2023-05-14T03:43:06.692Z,100.00
2023-05-14T03:45:33.579Z,100.00
2023-05-14T03:48:00.185Z,100.00
2023-05-14T03:50:26.842Z,100.00
2023-05-14T03:52:53.486Z,100.00
2023-05-14T03:55:20.197Z,100.00
2023-05-14T03:57:48.660Z,100.00
2023-05-14T04:00:15.704Z,100.00
2023-05-14T04:02:42.730Z,100.00
2023-05-14T04:05:09.564Z,100.00
2023-05-14T04:07:36.229Z,100.00
2023-05-14T04:10:04.274Z,100.00
2023-05-14T04:12:31.477Z,100.00
2023-05-14T04:14:59.302Z,100.00
2023-05-14T04:17:25.908Z,100.00
2023-05-14T04:19:52.462Z,100.00
2023-05-14T04:22:19.013Z,100.00
2023-05-14T04:24:45.513Z,100.00
2023-05-14T04:27:12.001Z,100.00
2023-05-14T04:29:38.470Z,100.00
2023-05-14T04:32:07.098Z,100.00
2023-05-14T04:34:33.764Z,100.00
2023-05-14T04:37:00.258Z,100.00
2023-05-14T04:39:26.753Z,100.00
2023-05-14T04:41:53.274Z,100.00
2023-05-14T04:44:19.750Z,100.00
2023-05-14T04:46:46.231Z,100.00
2023-05-14T04:49:14.059Z,100.00
2023-05-14T04:51:40.515Z,100.00
2023-05-14T04:54:07.107Z,100.00
2023-05-14T04:56:33.578Z,100.00
2023-05-14T04:59:00.076Z,100.00
2023-05-14T05:01:26.595Z,100.00
2023-05-14T05:03:53.261Z,100.00
2023-05-14T05:06:21.155Z,100.00
2023-05-14T05:08:47.623Z,100.00
2023-05-14T05:11:14.137Z,100.00
2023-05-14T05:13:40.915Z,100.00
2023-05-14T05:16:07.634Z,100.00
2023-05-14T05:18:34.223Z,100.00
2023-05-14T05:21:00.814Z,100.00
2023-05-14T05:23:28.780Z,100.00
2023-05-14T05:25:55.304Z,100.00
2023-05-14T05:28:21.773Z,100.00
2023-05-14T05:30:48.314Z,100.00
2023-05-14T05:33:14.909Z,100.00
2023-05-14T05:35:41.377Z,100.00
2023-05-14T05:38:07.880Z,100.00
2023-05-14T05:40:35.775Z,100.00
2023-05-14T05:43:02.258Z,100.00
2023-05-14T05:45:28.732Z,100.00
2023-05-14T05:47:55.315Z,100.00
2023-05-14T05:50:21.952Z,100.00
2023-05-14T05:52:48.621Z,100.00
2023-05-14T05:55:15.241Z,100.00
2023-05-14T05:57:43.109Z,100.00
2023-05-14T06:00:10.505Z,100.00
2023-05-14T06:02:37.144Z,100.00
2023-05-14T06:05:04.327Z,100.00
2023-05-14T06:07:30.859Z,100.00
2023-05-14T06:09:57.336Z,100.00
2023-05-14T06:12:23.873Z,100.00
2023-05-14T06:14:51.849Z,100.00
2023-05-14T06:17:18.367Z,100.00
2023-05-14T06:19:44.893Z,100.00
2023-05-14T06:22:11.363Z,100.00
2023-05-14T06:24:37.903Z,100.00
2023-05-14T06:27:04.597Z,100.00
2023-05-14T06:29:31.073Z,100.00
2023-05-14T06:32:01.493Z,100.00
2023-05-14T06:34:28.112Z,100.00
2023-05-14T06:36:54.593Z,100.00
2023-05-14T06:39:21.147Z,100.00
2023-05-14T06:41:47.652Z,100.00
2023-05-14T06:44:14.118Z,100.00
2023-05-14T06:46:40.620Z,100.00
2023-05-14T06:49:08.617Z,100.00
2023-05-14T06:51:35.223Z,100.00
2023-05-14T06:54:01.839Z,100.00
2023-05-14T06:56:28.358Z,100.00
2023-05-14T06:58:54.874Z,100.00
2023-05-14T07:01:21.380Z,100.00
2023-05-14T07:03:47.914Z,100.00
2023-05-14T07:06:15.802Z,100.00
2023-05-14T07:08:42.458Z,100.00
2023-05-14T07:11:08.987Z,100.00
2023-05-14T07:13:35.490Z,100.00
2023-05-14T07:16:02.008Z,100.00
2023-05-14T07:18:28.583Z,100.00
2023-05-14T07:20:55.085Z,100.00
2023-05-14T07:23:22.973Z,100.00
2023-05-14T07:25:49.533Z,100.00
2023-05-14T07:28:16.011Z,100.00
2023-05-14T07:30:42.479Z,100.00
2023-05-14T07:33:09.077Z,100.00
2023-05-14T07:35:35.734Z,100.00
2023-05-14T07:38:02.238Z,100.00
2023-05-14T07:40:30.077Z,100.00
2023-05-14T07:42:56.582Z,100.00
2023-05-14T07:45:23.102Z,100.00
2023-05-14T07:47:49.745Z,100.00
2023-05-14T07:50:16.273Z,100.00
2023-05-14T07:52:42.793Z,100.00
2023-05-14T07:55:10.467Z,100.00
2023-05-14T07:57:38.833Z,100.00
2023-05-14T08:00:06.537Z,100.00
2023-05-14T08:02:33.165Z,100.00
2023-05-14T08:04:59.799Z,100.00
2023-05-14T08:07:26.325Z,100.00
2023-05-14T08:09:52.992Z,100.00
2023-05-14T08:12:19.508Z,100.00
2023-05-14T08:14:47.359Z,100.00
2023-05-14T08:17:14.106Z,100.00
2023-05-14T08:19:40.688Z,100.00
2023-05-14T08:22:07.291Z,100.00
2023-05-14T08:24:33.815Z,100.00
2023-05-14T08:27:00.376Z,100.00
2023-05-14T08:29:26.890Z,100.00
2023-05-14T08:31:54.736Z,100.00
2023-05-14T08:34:21.293Z,100.00
2023-05-14T08:36:47.840Z,100.00
2023-05-14T08:39:14.360Z,100.00
2023-05-14T08:41:41.337Z,100.00
2023-05-14T08:44:12.421Z,100.00
2023-05-14T08:46:40.184Z,100.00
2023-05-14T08:49:15.656Z,100.00
2023-05-14T08:51:42.837Z,100.00
2023-05-14T08:54:11.461Z,100.00
2023-05-14T08:56:39.617Z,100.00
2023-05-14T08:59:06.147Z,100.00
2023-05-14T09:01:33.038Z,100.00
2023-05-14T09:04:00.415Z,100.00
2023-05-14T09:06:28.937Z,100.00
2023-05-14T09:08:56.021Z,100.00
2023-05-14T09:11:22.732Z,100.00
2023-05-14T09:13:49.252Z,100.00
2023-05-14T09:16:18.413Z,100.00
2023-05-14T09:18:45.244Z,100.00
2023-05-14T09:21:13.623Z,100.00
2023-05-14T09:23:43.284Z,100.00
2023-05-14T09:26:09.954Z,100.00
2023-05-14T09:28:40.072Z,100.00
2023-05-14T09:31:06.642Z,100.00
2023-05-14T09:33:33.194Z,100.00
2023-05-14T09:36:00.144Z,100.00
2023-05-14T09:38:29.964Z,100.00
2023-05-14T09:40:58.019Z,100.00
2023-05-14T09:43:24.544Z,100.00
2023-05-14T09:45:51.025Z,100.00
2023-05-14T09:48:17.547Z,100.00
2023-05-14T09:50:44.998Z,100.00
2023-05-14T09:53:11.690Z,100.00
2023-05-14T09:55:38.603Z,100.00
2023-05-14T09:58:06.485Z,100.00
2023-05-14T10:00:33.760Z,100.00
2023-05-14T10:03:04.855Z,100.00
2023-05-14T10:05:34.911Z,100.00
2023-05-14T10:08:05.687Z,100.00
2023-05-14T10:10:33.202Z,100.00
2023-05-14T10:13:03.827Z,100.00
2023-05-14T10:15:36.901Z,100.00
2023-05-14T10:18:09.535Z,100.00
2023-05-14T10:20:37.907Z,100.00
2023-05-14T10:23:05.703Z,100.00
2023-05-14T10:25:32.493Z,100.00
2023-05-14T10:27:59.262Z,100.00
2023-05-14T10:30:26.013Z,100.00
2023-05-14T10:33:08.071Z,100.00
2023-05-14T10:35:55.379Z,100.00
2023-05-14T10:38:27.488Z,100.00
2023-05-14T10:40:59.317Z,100.00
2023-05-14T10:43:28.178Z,100.00
2023-05-14T10:45:55.227Z,100.00
2023-05-14T10:48:23.853Z,100.00
2023-05-14T10:50:51.613Z,100.00
2023-05-14T10:53:18.355Z,100.00
2023-05-14T10:55:45.937Z,100.00
2023-05-14T10:58:12.567Z,100.00
2023-05-14T11:00:41.127Z,100.00
2023-05-14T11:03:07.889Z,100.00
2023-05-14T11:05:36.890Z,100.00
2023-05-14T11:08:07.970Z,100.00
2023-05-14T11:10:35.434Z,100.00
2023-05-14T11:13:02.451Z,100.00
2023-05-14T11:15:29.038Z,100.00
2023-05-14T11:17:55.624Z,100.00
2023-05-14T11:20:22.357Z,100.00
2023-05-14T11:22:50.433Z,100.00
2023-05-14T11:25:17.101Z,100.00
2023-05-14T11:27:45.619Z,100.00
2023-05-14T11:30:13.898Z,100.00
2023-05-14T11:32:40.734Z,100.00
2023-05-14T11:35:07.998Z,100.00
2023-05-14T11:37:34.479Z,100.00
2023-05-14T11:40:02.414Z,100.00
2023-05-14T11:42:28.948Z,100.00
2023-05-14T11:44:55.546Z,100.00
2023-05-14T11:47:22.923Z,100.00
2023-05-14T11:49:49.730Z,100.00
2023-05-14T11:52:16.871Z,100.00
2023-05-14T11:54:44.264Z,100.00
2023-05-14T11:57:13.738Z,100.00
2023-05-14T11:59:40.533Z,100.00
2023-05-14T12:02:10.641Z,100.00
2023-05-14T12:04:37.487Z,100.00
2023-05-14T12:07:08.418Z,100.00
2023-05-14T12:09:37.244Z,100.00
2023-05-14T12:12:08.453Z,100.00
2023-05-14T12:14:37.843Z,100.00
2023-05-14T12:17:11.710Z,100.00
2023-05-14T12:19:40.416Z,100.00
2023-05-14T12:22:08.138Z,100.00
2023-05-14T12:24:34.709Z,100.00
2023-05-14T12:27:02.337Z,100.00
2023-05-14T12:29:28.906Z,100.00
2023-05-14T12:31:58.055Z,100.00
2023-05-14T12:34:24.565Z,100.00
2023-05-14T12:36:51.149Z,100.00
2023-05-14T12:39:17.915Z,93.20
2023-05-14T12:41:44.440Z,91.52
2023-05-14T12:44:10.937Z,93.69
2023-05-14T12:46:37.774Z,88.06
2023-05-14T12:49:05.580Z,80.94
2023-05-14T12:51:32.112Z,80.03
2023-05-14T12:53:58.569Z,84.69
2023-05-14T12:56:25.117Z,88.81
2023-05-14T12:58:51.616Z,89.89
2023-05-14T13:01:18.113Z,81.51
2023-05-14T13:03:44.634Z,85.00
2023-05-14T13:06:12.518Z,87.87
2023-05-14T13:08:40.498Z,87.44
2023-05-14T13:11:07.916Z,87.33
2023-05-14T13:13:34.488Z,91.20
2023-05-14T13:16:01.013Z,86.95
2023-05-14T13:18:27.574Z,91.77
2023-05-14T13:20:54.193Z,92.22
2023-05-14T13:23:22.076Z,87.90
2023-05-14T13:25:50.017Z,79.58
2023-05-14T13:28:16.676Z,72.40
2023-05-14T13:31:04.389Z,76.62
2023-05-14T13:33:30.865Z,79.83
2023-05-14T13:35:57.376Z,73.52
2023-05-14T13:38:25.168Z,72.25
2023-05-14T13:40:51.697Z,69.33
2023-05-14T13:43:18.236Z,68.13
2023-05-14T13:45:44.793Z,67.25
2023-05-14T13:48:11.348Z,70.31
2023-05-14T13:50:37.823Z,71.92
2023-05-14T13:53:04.308Z,69.83
2023-05-14T13:55:32.140Z,69.59
2023-05-14T13:57:58.734Z,67.09
2023-05-14T14:00:25.210Z,67.58
2023-05-14T14:02:51.691Z,65.18
2023-05-14T14:05:18.559Z,65.63
2023-05-14T14:07:45.781Z,65.58
2023-05-14T14:10:13.020Z,72.88
2023-05-14T14:12:41.032Z,70.91
2023-05-14T14:15:08.402Z,66.55
2023-05-14T14:17:35.025Z,65.29
2023-05-14T14:20:01.618Z,66.17
2023-05-14T14:22:29.259Z,63.89
2023-05-14T14:24:56.013Z,64.12
2023-05-14T14:27:22.864Z,67.84
2023-05-14T14:29:50.699Z,67.85
2023-05-14T14:32:17.257Z,64.45
2023-05-14T14:34:44.014Z,63.29
2023-05-14T14:37:10.473Z,63.49
2023-05-14T14:39:36.916Z,65.30
2023-05-14T14:42:03.999Z,63.87
2023-05-14T14:44:30.505Z,66.10
2023-05-14T14:46:58.327Z,68.93
2023-05-14T14:49:24.980Z,65.57
2023-05-14T14:51:51.583Z,65.60
2023-05-14T14:54:18.117Z,62.64
2023-05-14T14:56:44.643Z,63.66
2023-05-14T14:59:11.176Z,59.52
2023-05-14T15:01:37.780Z,60.02
2023-05-14T15:04:05.823Z,60.45
2023-05-14T15:06:32.312Z,61.35
2023-05-14T15:08:58.830Z,61.14
2023-05-14T15:11:25.326Z,60.80
2023-05-14T15:13:51.800Z,64.83
2023-05-14T15:16:18.312Z,62.47
2023-05-14T15:18:44.965Z,60.97
2023-05-14T15:21:12.889Z,60.81
2023-05-14T15:23:39.364Z,60.47
2023-05-14T15:26:05.848Z,58.93
2023-05-14T15:28:32.343Z,60.16
2023-05-14T15:30:59.054Z,59.01
2023-05-14T15:33:25.525Z,59.75
2023-05-14T15:35:52.054Z,59.80
2023-05-14T15:38:19.906Z,61.37
2023-05-14T15:40:46.381Z,61.30
2023-05-14T15:43:12.885Z,62.62
2023-05-14T15:45:39.417Z,62.62
2023-05-14T15:48:06.334Z,63.79
2023-05-14T15:50:32.865Z,64.42
2023-05-14T15:53:00.198Z,65.80
2023-05-14T15:55:28.165Z,67.85
2023-05-14T15:57:57.819Z,67.23
2023-05-14T16:00:24.872Z,70.85
2023-05-14T16:02:52.111Z,72.09
2023-05-14T16:05:18.902Z,72.13
2023-05-14T16:07:45.459Z,70.05
2023-05-14T16:10:11.935Z,70.80
2023-05-14T16:12:39.786Z,69.25
2023-05-14T16:15:07.546Z,68.77
2023-05-14T16:17:34.407Z,68.14
2023-05-14T16:20:01.007Z,70.30
2023-05-14T16:22:27.517Z,72.64
2023-05-14T16:24:53.984Z,71.47
2023-05-14T16:27:20.893Z,73.40
2023-05-14T16:29:48.806Z,66.50
2023-05-14T16:32:15.345Z,68.14
2023-05-14T16:34:41.899Z,68.95
2023-05-14T16:37:08.725Z,69.70
2023-05-14T16:39:36.113Z,73.53
2023-05-14T16:42:02.672Z,76.41
2023-05-14T16:44:29.119Z,81.70
2023-05-14T16:46:57.549Z,81.83
2023-05-14T16:49:24.087Z,81.79
2023-05-14T16:51:50.589Z,85.61
2023-05-14T16:54:17.067Z,85.49
2023-05-14T16:56:43.699Z,87.40
2023-05-14T16:59:10.172Z,89.17
2023-05-14T17:01:37.245Z,95.00
2023-05-14T17:04:05.150Z,93.31
2023-05-14T17:06:31.675Z,92.37
2023-05-14T17:08:58.161Z,90.28
2023-05-14T17:11:24.696Z,93.92
2023-05-14T17:13:51.294Z,93.96
2023-05-14T17:16:17.939Z,95.97
2023-05-14T17:18:44.545Z,96.68
2023-05-14T17:21:12.421Z,97.06
2023-05-14T17:23:38.889Z,97.43
2023-05-14T17:26:05.516Z,96.68
2023-05-14T17:28:32.064Z,98.55
2023-05-14T17:30:58.580Z,99.08
2023-05-14T17:33:25.150Z,97.17
2023-05-14T17:35:51.676Z,100.00
2023-05-14T17:38:19.463Z,100.00
2023-05-14T17:40:45.958Z,100.00
2023-05-14T17:43:12.736Z,100.00
2023-05-14T17:45:52.424Z,100.00
2023-05-14T17:48:19.430Z,100.00
2023-05-14T17:50:45.927Z,100.00
2023-05-14T17:53:12.423Z,100.00
2023-05-14T17:55:40.460Z,100.00
2023-05-14T17:58:07.118Z,100.00
2023-05-14T18:00:33.813Z,95.95
2023-05-14T18:03:00.445Z,97.85
2023-05-14T18:05:27.011Z,93.39
2023-05-14T18:07:53.529Z,91.63
2023-05-14T18:10:20.137Z,89.58
2023-05-14T18:12:48.078Z,90.57
2023-05-14T18:15:14.642Z,90.50
2023-05-14T18:17:41.202Z,90.81
2023-05-14T18:20:08.730Z,93.42
2023-05-14T18:22:35.173Z,96.92
2023-05-14T18:25:01.700Z,100.00
2023-05-14T18:27:28.537Z,100.00
2023-05-14T18:29:56.408Z,100.00
2023-05-14T18:32:22.900Z,100.00
2023-05-14T18:34:49.382Z,100.00
2023-05-14T18:37:15.925Z,100.00
2023-05-14T18:39:42.457Z,100.00
2023-05-14T18:42:08.924Z,100.00
2023-05-14T18:44:35.391Z,100.00
2023-05-14T18:47:03.620Z,100.00
2023-05-14T18:49:30.175Z,100.00
2023-05-14T18:51:56.711Z,100.00
2023-05-14T18:54:23.228Z,100.00
2023-05-14T18:56:49.775Z,100.00
2023-05-14T18:59:16.307Z,100.00
2023-05-14T19:01:42.810Z,100.00
2023-05-14T19:04:10.688Z,100.00
2023-05-14T19:06:37.235Z,100.00
2023-05-14T19:09:03.756Z,100.00
2023-05-14T19:11:30.290Z,100.00
2023-05-14T19:13:56.845Z,100.00
2023-05-14T19:16:23.365Z,100.00
2023-05-14T19:18:50.097Z,100.00
2023-05-14T19:21:17.991Z,100.00
2023-05-14T19:23:45.611Z,100.00
2023-05-14T19:26:12.188Z,100.00
2023-05-14T19:28:38.680Z,100.00
2023-05-14T19:31:05.412Z,100.00
2023-05-14T19:33:31.946Z,100.00
2023-05-14T19:35:58.480Z,100.00
2023-05-14T19:38:26.347Z,100.00
2023-05-14T19:40:52.859Z,100.00
2023-05-14T19:43:19.394Z,100.00
2023-05-14T19:45:45.927Z,100.00
2023-05-14T19:48:12.569Z,100.00
2023-05-14T19:50:39.157Z,100.00
2023-05-14T19:53:05.649Z,100.00
2023-05-14T19:55:33.474Z,100.00
2023-05-14T19:58:00.002Z,100.00
2023-05-14T20:00:26.767Z,100.00
2023-05-14T20:02:53.511Z,100.00
2023-05-14T20:05:20.071Z,100.00
2023-05-14T20:07:46.581Z,100.00
2023-05-14T20:10:13.089Z,100.00
2023-05-14T20:12:40.917Z,100.00
2023-05-14T20:15:08.257Z,100.00
2023-05-14T20:17:34.812Z,100.00
2023-05-14T20:20:01.515Z,100.00
2023-05-14T20:22:28.058Z,100.00
2023-05-14T20:24:54.562Z,100.00
2023-05-14T20:27:21.521Z,100.00
2023-05-14T20:29:49.455Z,100.00
2023-05-14T20:32:15.971Z,100.00
2023-05-14T20:34:42.498Z,100.00
2023-05-14T20:37:09.042Z,100.00
2023-05-14T20:39:35.521Z,100.00
2023-05-14T20:42:02.003Z,100.00
2023-05-14T20:44:28.585Z,100.00
2023-05-14T20:46:56.603Z,100.00
2023-05-14T20:49:23.094Z,100.00
2023-05-14T20:51:49.589Z,100.00
2023-05-14T20:54:16.148Z,100.00
2023-05-14T20:56:42.723Z,100.00
2023-05-14T20:59:09.313Z,100.00
2023-05-14T21:01:35.826Z,100.00
2023-05-14T21:04:04.213Z,100.00
2023-05-14T21:06:30.846Z,100.00
2023-05-14T21:08:57.366Z,100.00
2023-05-14T21:11:23.873Z,100.00
2023-05-14T21:13:50.377Z,100.00
2023-05-14T21:16:17.003Z,100.00
2023-05-14T21:18:43.530Z,100.00
2023-05-14T21:21:11.432Z,100.00
2023-05-14T21:23:38.005Z,100.00
2023-05-14T21:26:04.656Z,100.00
2023-05-14T21:28:31.185Z,100.00
2023-05-14T21:30:57.746Z,100.00
2023-05-14T21:33:24.325Z,100.00
2023-05-14T21:35:50.841Z,100.00
2023-05-14T21:38:18.705Z,100.00
2023-05-14T21:40:45.223Z,100.00
2023-05-14T21:43:11.722Z,100.00
2023-05-14T21:45:38.706Z,100.00
2023-05-14T21:48:05.803Z,100.00
2023-05-14T21:50:32.442Z,100.00
2023-05-14T21:52:58.919Z,100.00
2023-05-14T21:55:27.560Z,100.00
2023-05-14T21:57:54.452Z,100.00
2023-05-14T22:00:20.944Z,100.00
2023-05-14T22:02:47.465Z,100.00
2023-05-14T22:05:14.003Z,100.00
2023-05-14T22:07:40.783Z,100.00
2023-05-14T22:10:07.821Z,100.00
2023-05-14T22:12:35.705Z,100.00
2023-05-14T22:15:02.553Z,100.00
2023-05-14T22:17:29.117Z,100.00
2023-05-14T22:19:55.632Z,100.00
2023-05-14T22:22:22.136Z,100.00
2023-05-14T22:24:48.634Z,100.00
2023-05-14T22:27:15.179Z,100.00
2023-05-14T22:29:43.120Z,100.00
2023-05-14T22:32:09.668Z,100.00
2023-05-14T22:34:36.218Z,100.00
2023-05-14T22:37:02.796Z,100.00
2023-05-14T22:39:29.326Z,100.00
2023-05-14T22:41:55.848Z,100.00
2023-05-14T22:44:22.556Z,100.00
2023-05-14T22:46:50.591Z,100.00
2023-05-14T22:49:17.239Z,100.00
2023-05-14T22:51:43.770Z,100.00
2023-05-14T22:54:10.396Z,100.00
2023-05-14T22:56:37.492Z,100.00
2023-05-14T22:59:03.982Z,100.00
2023-05-14T23:01:31.533Z,100.00
2023-05-14T23:03:59.677Z,100.00
2023-05-14T23:06:26.353Z,100.00
2023-05-14T23:08:52.834Z,100.00
2023-05-14T23:11:19.312Z,100.00
2023-05-14T23:13:45.878Z,100.00
2023-05-14T23:16:12.400Z,100.00
2023-05-14T23:18:39.046Z,100.00
2023-05-14T23:21:07.033Z,100.00
2023-05-14T23:23:33.515Z,100.00
2023-05-14T23:26:00.216Z,100.00
2023-05-14T23:28:26.851Z,100.00
2023-05-14T23:30:53.338Z,100.00
2023-05-14T23:33:19.821Z,100.00
2023-05-14T23:35:46.444Z,100.00
2023-05-14T23:38:14.424Z,100.00
2023-05-14T23:40:40.945Z,100.00
2023-05-14T23:43:07.434Z,100.00
2023-05-14T23:45:34.129Z,100.00
2023-05-14T23:48:01.727Z,100.00
2023-05-14T23:50:28.303Z,100.00
2023-05-14T23:52:55.396Z,100.00
2023-05-14T23:55:23.489Z,100.00
2023-05-14T23:57:50.245Z,100.00
